Terminal Aerodrome Forecast
Issued by NWS Caribou, ME

Home | Current Version | Previous Version | Text Only | Print | Product List | Glossary On
Versions: 1 2 3 4 5 6 7 8 9 10 11 12 13 14 15 16 17 18 19
000
FTUS41 KCAR 221748
TAFBGR
TAF
KBGR 221748Z 2218/2318 VRB03KT P6SM SCT020 OVC050
     FM230600 12002KT 4SM BR SCT007 OVC020
     FM231100 12003KT 4SM BR OVC015
     FM231500 08005KT 3SM -RA BR OVC007=

USA.gov is the U.S. government's official web portal to all federal, state and local government web resources and services.